sensor_id;sensor_type;location;lat;lon;timestamp;temperature;humidity
52941;DHT22;62001;53.366;6.636;2022-09-13T00:01:16;17.70;99.90
52941;DHT22;62001;53.366;6.636;2022-09-13T00:03:42;17.60;99.90
52941;DHT22;62001;53.366;6.636;2022-09-13T00:06:13;17.70;99.90
52941;DHT22;62001;53.366;6.636;2022-09-13T00:08:39;17.60;99.90
52941;DHT22;62001;53.366;6.636;2022-09-13T00:11:06;17.60;99.90
52941;DHT22;62001;53.366;6.636;2022-09-13T00:13:32;17.60;99.90
52941;DHT22;62001;53.366;6.636;2022-09-13T00:15:58;17.60;99.90
52941;DHT22;62001;53.366;6.636;2022-09-13T00:18:28;17.60;99.90
52941;DHT22;62001;53.366;6.636;2022-09-13T00:21:06;17.60;99.90
52941;DHT22;62001;53.366;6.636;2022-09-13T00:23:33;17.60;99.90
52941;DHT22;62001;53.366;6.636;2022-09-13T00:26:04;17.60;99.90
52941;DHT22;62001;53.366;6.636;2022-09-13T00:28:29;17.60;99.90
52941;DHT22;62001;53.366;6.636;2022-09-13T00:30:59;17.60;99.90
52941;DHT22;62001;53.366;6.636;2022-09-13T00:33:25;17.60;99.90
52941;DHT22;62001;53.366;6.636;2022-09-13T00:35:50;17.60;99.90
52941;DHT22;62001;53.366;6.636;2022-09-13T00:38:16;17.60;99.90
52941;DHT22;62001;53.366;6.636;2022-09-13T00:40:42;17.60;99.90
52941;DHT22;62001;53.366;6.636;2022-09-13T00:43:43;17.60;99.90
52941;DHT22;62001;53.366;6.636;2022-09-13T00:49:00;17.50;99.90
52941;DHT22;62001;53.366;6.636;2022-09-13T00:51:27;17.50;99.90
52941;DHT22;62001;53.366;6.636;2022-09-13T00:53:55;17.50;99.90
52941;DHT22;62001;53.366;6.636;2022-09-13T00:56:34;17.50;99.90
52941;DHT22;62001;53.366;6.636;2022-09-13T00:59:12;17.50;99.90
52941;DHT22;62001;53.366;6.636;2022-09-13T01:01:53;17.50;99.90
52941;DHT22;62001;53.366;6.636;2022-09-13T01:04:23;17.50;99.90
52941;DHT22;62001;53.366;6.636;2022-09-13T01:06:50;17.50;99.90
52941;DHT22;62001;53.366;6.636;2022-09-13T01:09:16;17.50;99.90
52941;DHT22;62001;53.366;6.636;2022-09-13T01:11:47;17.50;99.90
52941;DHT22;62001;53.366;6.636;2022-09-13T01:14:18;17.60;99.90
52941;DHT22;62001;53.366;6.636;2022-09-13T01:16:44;17.50;99.90
52941;DHT22;62001;53.366;6.636;2022-09-13T01:19:11;17.50;99.90
52941;DHT22;62001;53.366;6.636;2022-09-13T01:30:22;17.50;99.90
52941;DHT22;62001;53.366;6.636;2022-09-13T01:33:20;17.50;99.90
52941;DHT22;62001;53.366;6.636;2022-09-13T01:47:14;17.40;99.90
52941;DHT22;62001;53.366;6.636;2022-09-13T01:50:07;17.40;99.90
52941;DHT22;62001;53.366;6.636;2022-09-13T01:52:57;17.40;99.90
52941;DHT22;62001;53.366;6.636;2022-09-13T02:03:36;17.40;99.90
52941;DHT22;62001;53.366;6.636;2022-09-13T02:06:17;17.40;99.90
52941;DHT22;62001;53.366;6.636;2022-09-13T02:08:48;17.40;99.90
52941;DHT22;62001;53.366;6.636;2022-09-13T02:11:16;17.30;99.90
52941;DHT22;62001;53.366;6.636;2022-09-13T02:13:55;17.40;99.90
52941;DHT22;62001;53.366;6.636;2022-09-13T02:16:32;17.40;99.90
52941;DHT22;62001;53.366;6.636;2022-09-13T02:19:04;17.40;99.90
52941;DHT22;62001;53.366;6.636;2022-09-13T02:21:35;17.40;99.90
52941;DHT22;62001;53.366;6.636;2022-09-13T02:24:22;17.40;99.90
52941;DHT22;62001;53.366;6.636;2022-09-13T02:26:51;17.40;99.90
52941;DHT22;62001;53.366;6.636;2022-09-13T02:29:19;17.40;99.90
52941;DHT22;62001;53.366;6.636;2022-09-13T02:32:08;17.40;99.90
52941;DHT22;62001;53.366;6.636;2022-09-13T02:35:00;17.40;99.90
52941;DHT22;62001;53.366;6.636;2022-09-13T02:37:29;17.50;99.90
52941;DHT22;62001;53.366;6.636;2022-09-13T02:40:01;17.40;99.90
52941;DHT22;62001;53.366;6.636;2022-09-13T02:42:56;17.50;99.90
52941;DHT22;62001;53.366;6.636;2022-09-13T02:45:30;17.40;99.90
52941;DHT22;62001;53.366;6.636;2022-09-13T02:47:59;17.50;99.90
52941;DHT22;62001;53.366;6.636;2022-09-13T02:51:22;17.40;99.90
52941;DHT22;62001;53.366;6.636;2022-09-13T02:54:09;17.40;99.90
52941;DHT22;62001;53.366;6.636;2022-09-13T02:56:46;17.40;99.90
52941;DHT22;62001;53.366;6.636;2022-09-13T02:59:19;17.40;99.90
52941;DHT22;62001;53.366;6.636;2022-09-13T03:02:07;17.40;99.90
52941;DHT22;62001;53.366;6.636;2022-09-13T03:04:34;17.40;99.90
52941;DHT22;62001;53.366;6.636;2022-09-13T03:07:01;17.40;99.90
52941;DHT22;62001;53.366;6.636;2022-09-13T03:09:29;17.40;99.90
52941;DHT22;62001;53.366;6.636;2022-09-13T03:12:48;17.50;99.90
52941;DHT22;62001;53.366;6.636;2022-09-13T03:20:43;17.50;99.90
52941;DHT22;62001;53.366;6.636;2022-09-13T03:23:33;17.40;99.90
52941;DHT22;62001;53.366;6.636;2022-09-13T03:34:48;17.40;99.90
52941;DHT22;62001;53.366;6.636;2022-09-13T03:37:32;17.40;99.90
52941;DHT22;62001;53.366;6.636;2022-09-13T03:40:09;17.40;99.90
52941;DHT22;62001;53.366;6.636;2022-09-13T03:42:43;17.40;99.90
52941;DHT22;62001;53.366;6.636;2022-09-13T03:45:11;17.40;99.90
52941;DHT22;62001;53.366;6.636;2022-09-13T03:47:41;17.40;99.90
52941;DHT22;62001;53.366;6.636;2022-09-13T03:50:09;17.40;99.90
52941;DHT22;62001;53.366;6.636;2022-09-13T03:52:38;17.40;99.90
52941;DHT22;62001;53.366;6.636;2022-09-13T03:55:04;17.40;99.90
52941;DHT22;62001;53.366;6.636;2022-09-13T03:57:30;17.40;99.90
52941;DHT22;62001;53.366;6.636;2022-09-13T03:59:56;17.40;99.90
52941;DHT22;62001;53.366;6.636;2022-09-13T04:02:24;17.40;99.90
52941;DHT22;62001;53.366;6.636;2022-09-13T04:04:50;17.30;99.90
52941;DHT22;62001;53.366;6.636;2022-09-13T04:07:19;17.40;99.90
52941;DHT22;62001;53.366;6.636;2022-09-13T04:09:45;17.40;99.90
52941;DHT22;62001;53.366;6.636;2022-09-13T04:12:13;17.40;99.90
52941;DHT22;62001;53.366;6.636;2022-09-13T04:14:40;17.40;99.90
52941;DHT22;62001;53.366;6.636;2022-09-13T04:17:06;17.30;99.90
52941;DHT22;62001;53.366;6.636;2022-09-13T04:19:32;17.40;99.90
52941;DHT22;62001;53.366;6.636;2022-09-13T04:21:58;17.40;99.90
52941;DHT22;62001;53.366;6.636;2022-09-13T04:24:26;17.40;99.90
52941;DHT22;62001;53.366;6.636;2022-09-13T04:26:53;17.30;99.90
52941;DHT22;62001;53.366;6.636;2022-09-13T04:29:20;17.30;99.90
52941;DHT22;62001;53.366;6.636;2022-09-13T04:31:47;17.30;99.90
52941;DHT22;62001;53.366;6.636;2022-09-13T04:34:14;17.40;99.90
52941;DHT22;62001;53.366;6.636;2022-09-13T04:36:40;17.40;99.90
52941;DHT22;62001;53.366;6.636;2022-09-13T04:39:05;17.40;99.90
52941;DHT22;62001;53.366;6.636;2022-09-13T04:41:32;17.40;99.90
52941;DHT22;62001;53.366;6.636;2022-09-13T04:44:00;17.40;99.90
52941;DHT22;62001;53.366;6.636;2022-09-13T04:46:26;17.30;99.90
52941;DHT22;62001;53.366;6.636;2022-09-13T04:48:52;17.40;99.90
52941;DHT22;62001;53.366;6.636;2022-09-13T04:51:19;17.40;99.90
52941;DHT22;62001;53.366;6.636;2022-09-13T04:53:50;17.40;99.90
52941;DHT22;62001;53.366;6.636;2022-09-13T04:56:17;17.40;99.90
52941;DHT22;62001;53.366;6.636;2022-09-13T04:58:44;17.40;99.90
52941;DHT22;62001;53.366;6.636;2022-09-13T05:01:10;17.40;99.90
52941;DHT22;62001;53.366;6.636;2022-09-13T05:03:37;17.40;99.90
52941;DHT22;62001;53.366;6.636;2022-09-13T05:06:08;17.30;99.90
52941;DHT22;62001;53.366;6.636;2022-09-13T05:08:35;17.30;99.90
52941;DHT22;62001;53.366;6.636;2022-09-13T05:11:01;17.20;99.90
52941;DHT22;62001;53.366;6.636;2022-09-13T05:13:28;17.20;99.90
52941;DHT22;62001;53.366;6.636;2022-09-13T05:15:55;17.20;99.90
52941;DHT22;62001;53.366;6.636;2022-09-13T05:18:22;17.10;99.90
52941;DHT22;62001;53.366;6.636;2022-09-13T05:20:48;17.10;99.90
52941;DHT22;62001;53.366;6.636;2022-09-13T05:23:13;17.10;99.90
52941;DHT22;62001;53.366;6.636;2022-09-13T05:25:39;17.10;99.90
52941;DHT22;62001;53.366;6.636;2022-09-13T05:28:05;17.10;99.90
52941;DHT22;62001;53.366;6.636;2022-09-13T05:30:31;17.10;99.90
52941;DHT22;62001;53.366;6.636;2022-09-13T05:32:56;17.10;99.90
52941;DHT22;62001;53.366;6.636;2022-09-13T05:35:22;17.10;99.90
52941;DHT22;62001;53.366;6.636;2022-09-13T05:37:48;17.10;99.90
52941;DHT22;62001;53.366;6.636;2022-09-13T05:40:14;17.00;99.90
52941;DHT22;62001;53.366;6.636;2022-09-13T05:42:40;17.10;99.90
52941;DHT22;62001;53.366;6.636;2022-09-13T05:45:06;17.10;99.90
52941;DHT22;62001;53.366;6.636;2022-09-13T05:47:32;17.10;99.90
52941;DHT22;62001;53.366;6.636;2022-09-13T05:49:58;17.10;99.90
52941;DHT22;62001;53.366;6.636;2022-09-13T05:52:23;17.10;99.90
52941;DHT22;62001;53.366;6.636;2022-09-13T05:54:49;17.10;99.90
52941;DHT22;62001;53.366;6.636;2022-09-13T05:57:15;17.10;99.90
52941;DHT22;62001;53.366;6.636;2022-09-13T05:59:41;17.10;99.90
52941;DHT22;62001;53.366;6.636;2022-09-13T06:02:09;17.00;99.90
52941;DHT22;62001;53.366;6.636;2022-09-13T06:04:35;17.10;99.90
52941;DHT22;62001;53.366;6.636;2022-09-13T06:07:00;17.10;99.90
52941;DHT22;62001;53.366;6.636;2022-09-13T06:09:26;17.10;99.90
52941;DHT22;62001;53.366;6.636;2022-09-13T06:11:52;17.10;99.90
52941;DHT22;62001;53.366;6.636;2022-09-13T06:14:17;17.10;99.90
52941;DHT22;62001;53.366;6.636;2022-09-13T06:16:44;17.10;99.90
52941;DHT22;62001;53.366;6.636;2022-09-13T06:19:09;17.20;99.90
52941;DHT22;62001;53.366;6.636;2022-09-13T06:21:35;17.20;99.90
52941;DHT22;62001;53.366;6.636;2022-09-13T06:24:01;17.20;99.90
52941;DHT22;62001;53.366;6.636;2022-09-13T06:26:28;17.20;99.90
52941;DHT22;62001;53.366;6.636;2022-09-13T06:28:55;17.20;99.90
52941;DHT22;62001;53.366;6.636;2022-09-13T06:31:24;17.20;99.90
52941;DHT22;62001;53.366;6.636;2022-09-13T06:33:58;17.20;99.90
52941;DHT22;62001;53.366;6.636;2022-09-13T06:36:25;17.20;99.90
52941;DHT22;62001;53.366;6.636;2022-09-13T06:38:51;17.20;99.90
52941;DHT22;62001;53.366;6.636;2022-09-13T06:41:22;17.20;99.90
52941;DHT22;62001;53.366;6.636;2022-09-13T06:43:55;17.20;99.90
52941;DHT22;62001;53.366;6.636;2022-09-13T06:46:22;17.30;99.90
52941;DHT22;62001;53.366;6.636;2022-09-13T06:48:48;17.40;99.90
52941;DHT22;62001;53.366;6.636;2022-09-13T06:51:19;17.50;99.90
52941;DHT22;62001;53.366;6.636;2022-09-13T06:53:46;17.60;99.90
52941;DHT22;62001;53.366;6.636;2022-09-13T06:56:18;17.90;99.90
52941;DHT22;62001;53.366;6.636;2022-09-13T06:58:47;18.50;99.90
52941;DHT22;62001;53.366;6.636;2022-09-13T07:01:22;19.00;99.90
52941;DHT22;62001;53.366;6.636;2022-09-13T07:03:50;20.10;99.90
52941;DHT22;62001;53.366;6.636;2022-09-13T07:06:22;21.10;99.90
52941;DHT22;62001;53.366;6.636;2022-09-13T07:08:49;21.70;99.90
52941;DHT22;62001;53.366;6.636;2022-09-13T07:11:17;21.70;99.90
52941;DHT22;62001;53.366;6.636;2022-09-13T07:13:54;21.50;99.90
52941;DHT22;62001;53.366;6.636;2022-09-13T07:16:25;21.40;99.90
52941;DHT22;62001;53.366;6.636;2022-09-13T07:19:02;21.20;99.90
52941;DHT22;62001;53.366;6.636;2022-09-13T07:21:30;21.00;99.90
52941;DHT22;62001;53.366;6.636;2022-09-13T07:23:57;20.80;99.90
52941;DHT22;62001;53.366;6.636;2022-09-13T07:26:24;20.60;99.90
52941;DHT22;62001;53.366;6.636;2022-09-13T07:28:54;20.40;99.90
52941;DHT22;62001;53.366;6.636;2022-09-13T07:31:24;20.30;99.90
52941;DHT22;62001;53.366;6.636;2022-09-13T07:33:55;20.20;99.90
52941;DHT22;62001;53.366;6.636;2022-09-13T07:36:22;20.10;99.90
52941;DHT22;62001;53.366;6.636;2022-09-13T07:38:49;20.00;99.90
52941;DHT22;62001;53.366;6.636;2022-09-13T07:41:17;20.20;99.90
52941;DHT22;62001;53.366;6.636;2022-09-13T07:43:43;20.50;99.90
52941;DHT22;62001;53.366;6.636;2022-09-13T07:46:12;20.70;99.90
52941;DHT22;62001;53.366;6.636;2022-09-13T07:48:40;20.80;99.90
52941;DHT22;62001;53.366;6.636;2022-09-13T07:51:20;20.90;99.90
52941;DHT22;62001;53.366;6.636;2022-09-13T07:53:48;21.00;99.90
52941;DHT22;62001;53.366;6.636;2022-09-13T07:56:16;21.00;99.90
52941;DHT22;62001;53.366;6.636;2022-09-13T07:58:44;21.10;99.90
52941;DHT22;62001;53.366;6.636;2022-09-13T08:01:14;21.30;99.90
52941;DHT22;62001;53.366;6.636;2022-09-13T08:03:41;21.50;99.90
52941;DHT22;62001;53.366;6.636;2022-09-13T08:06:07;21.60;99.90
52941;DHT22;62001;53.366;6.636;2022-09-13T08:08:34;21.60;99.90
52941;DHT22;62001;53.366;6.636;2022-09-13T08:11:01;21.80;99.90
52941;DHT22;62001;53.366;6.636;2022-09-13T08:13:27;22.10;99.90
52941;DHT22;62001;53.366;6.636;2022-09-13T08:15:54;22.30;99.90
52941;DHT22;62001;53.366;6.636;2022-09-13T08:18:20;22.50;99.90
52941;DHT22;62001;53.366;6.636;2022-09-13T08:20:46;22.70;99.90
52941;DHT22;62001;53.366;6.636;2022-09-13T08:23:13;23.40;99.90
52941;DHT22;62001;53.366;6.636;2022-09-13T08:25:39;23.40;99.90
52941;DHT22;62001;53.366;6.636;2022-09-13T08:28:15;23.10;99.90
52941;DHT22;62001;53.366;6.636;2022-09-13T08:30:42;22.60;99.90
52941;DHT22;62001;53.366;6.636;2022-09-13T08:33:09;22.20;99.90
52941;DHT22;62001;53.366;6.636;2022-09-13T08:35:36;21.90;99.90
52941;DHT22;62001;53.366;6.636;2022-09-13T08:38:03;21.60;99.90
52941;DHT22;62001;53.366;6.636;2022-09-13T08:40:33;21.40;99.90
52941;DHT22;62001;53.366;6.636;2022-09-13T08:46:09;21.20;99.90
52941;DHT22;62001;53.366;6.636;2022-09-13T08:48:39;21.10;99.90
52941;DHT22;62001;53.366;6.636;2022-09-13T08:51:27;21.00;99.90
52941;DHT22;62001;53.366;6.636;2022-09-13T08:53:56;21.00;99.90
52941;DHT22;62001;53.366;6.636;2022-09-13T09:04:33;20.90;99.90
52941;DHT22;62001;53.366;6.636;2022-09-13T09:07:18;21.00;99.90
52941;DHT22;62001;53.366;6.636;2022-09-13T09:09:58;21.10;99.90
52941;DHT22;62001;53.366;6.636;2022-09-13T09:15:13;21.00;99.90
52941;DHT22;62001;53.366;6.636;2022-09-13T09:17:47;20.90;99.90
52941;DHT22;62001;53.366;6.636;2022-09-13T09:20:25;20.90;99.90
52941;DHT22;62001;53.366;6.636;2022-09-13T09:22:53;20.90;99.90
52941;DHT22;62001;53.366;6.636;2022-09-13T09:25:22;20.80;99.90
52941;DHT22;62001;53.366;6.636;2022-09-13T09:27:50;20.70;99.90
52941;DHT22;62001;53.366;6.636;2022-09-13T09:30:15;20.50;99.90
52941;DHT22;62001;53.366;6.636;2022-09-13T09:35:43;20.60;99.90
52941;DHT22;62001;53.366;6.636;2022-09-13T09:38:26;20.50;99.90
52941;DHT22;62001;53.366;6.636;2022-09-13T09:40:53;20.30;99.90
52941;DHT22;62001;53.366;6.636;2022-09-13T09:43:33;20.10;99.90
52941;DHT22;62001;53.366;6.636;2022-09-13T09:46:02;19.90;99.90
52941;DHT22;62001;53.366;6.636;2022-09-13T09:48:40;19.90;99.90
52941;DHT22;62001;53.366;6.636;2022-09-13T09:51:08;20.00;99.90
52941;DHT22;62001;53.366;6.636;2022-09-13T09:53:40;20.00;99.90
52941;DHT22;62001;53.366;6.636;2022-09-13T09:56:27;20.00;99.90
52941;DHT22;62001;53.366;6.636;2022-09-13T09:58:53;20.10;99.90
52941;DHT22;62001;53.366;6.636;2022-09-13T10:01:30;20.10;99.90
52941;DHT22;62001;53.366;6.636;2022-09-13T10:04:07;20.10;99.90
52941;DHT22;62001;53.366;6.636;2022-09-13T10:06:41;20.00;99.90
52941;DHT22;62001;53.366;6.636;2022-09-13T10:09:16;19.90;99.90
52941;DHT22;62001;53.366;6.636;2022-09-13T10:11:53;20.00;99.90
52941;DHT22;62001;53.366;6.636;2022-09-13T10:14:42;20.00;99.90
52941;DHT22;62001;53.366;6.636;2022-09-13T10:17:29;20.10;99.90
52941;DHT22;62001;53.366;6.636;2022-09-13T10:22:39;20.10;99.90
52941;DHT22;62001;53.366;6.636;2022-09-13T10:25:23;20.20;99.90
52941;DHT22;62001;53.366;6.636;2022-09-13T10:27:51;20.30;99.90
52941;DHT22;62001;53.366;6.636;2022-09-13T10:32:59;20.50;99.90
52941;DHT22;62001;53.366;6.636;2022-09-13T10:35:26;20.60;99.90
52941;DHT22;62001;53.366;6.636;2022-09-13T10:37:53;20.70;99.90
52941;DHT22;62001;53.366;6.636;2022-09-13T10:40:28;20.70;99.90
52941;DHT22;62001;53.366;6.636;2022-09-13T10:42:57;20.70;99.90
52941;DHT22;62001;53.366;6.636;2022-09-13T10:45:25;20.60;99.90
52941;DHT22;62001;53.366;6.636;2022-09-13T10:48:12;20.40;99.90
52941;DHT22;62001;53.366;6.636;2022-09-13T10:50:39;20.30;99.90
52941;DHT22;62001;53.366;6.636;2022-09-13T10:55:56;20.30;99.90
52941;DHT22;62001;53.366;6.636;2022-09-13T10:58:22;20.30;99.90
52941;DHT22;62001;53.366;6.636;2022-09-13T11:01:12;20.40;99.90
52941;DHT22;62001;53.366;6.636;2022-09-13T11:11:42;21.10;99.90
52941;DHT22;62001;53.366;6.636;2022-09-13T11:14:22;21.20;99.90
52941;DHT22;62001;53.366;6.636;2022-09-13T11:25:39;20.90;99.90
52941;DHT22;62001;53.366;6.636;2022-09-13T11:31:14;20.70;99.90
52941;DHT22;62001;53.366;6.636;2022-09-13T11:34:15;20.70;99.90
52941;DHT22;62001;53.366;6.636;2022-09-13T11:37:15;20.90;99.90
52941;DHT22;62001;53.366;6.636;2022-09-13T11:45:33;20.60;99.90
52941;DHT22;62001;53.366;6.636;2022-09-13T11:50:49;20.40;99.90
52941;DHT22;62001;53.366;6.636;2022-09-13T11:56:28;20.30;99.90
52941;DHT22;62001;53.366;6.636;2022-09-13T11:59:03;20.40;99.90
52941;DHT22;62001;53.366;6.636;2022-09-13T12:01:38;20.40;99.90
52941;DHT22;62001;53.366;6.636;2022-09-13T12:10:20;20.60;99.90
52941;DHT22;62001;53.366;6.636;2022-09-13T12:12:48;20.70;99.90
52941;DHT22;62001;53.366;6.636;2022-09-13T12:15:38;20.80;99.90
52941;DHT22;62001;53.366;6.636;2022-09-13T12:20:58;20.70;99.90
52941;DHT22;62001;53.366;6.636;2022-09-13T12:23:38;20.50;99.90
52941;DHT22;62001;53.366;6.636;2022-09-13T12:29:05;20.30;99.90
52941;DHT22;62001;53.366;6.636;2022-09-13T12:31:32;20.30;99.90
52941;DHT22;62001;53.366;6.636;2022-09-13T12:33:58;20.40;99.90
52941;DHT22;62001;53.366;6.636;2022-09-13T12:36:37;20.50;99.90
52941;DHT22;62001;53.366;6.636;2022-09-13T12:41:59;20.30;99.90
52941;DHT22;62001;53.366;6.636;2022-09-13T12:52:25;20.20;99.90
52941;DHT22;62001;53.366;6.636;2022-09-13T12:55:42;20.30;99.90
52941;DHT22;62001;53.366;6.636;2022-09-13T13:03:34;20.20;99.90
52941;DHT22;62001;53.366;6.636;2022-09-13T13:06:20;20.10;99.90
52941;DHT22;62001;53.366;6.636;2022-09-13T13:08:54;20.00;99.90
52941;DHT22;62001;53.366;6.636;2022-09-13T13:11:25;20.00;99.90
52941;DHT22;62001;53.366;6.636;2022-09-13T13:13:58;19.90;99.90
52941;DHT22;62001;53.366;6.636;2022-09-13T13:16:30;19.90;99.90
52941;DHT22;62001;53.366;6.636;2022-09-13T13:19:04;19.80;99.90
52941;DHT22;62001;53.366;6.636;2022-09-13T13:21:36;19.60;99.90
52941;DHT22;62001;53.366;6.636;2022-09-13T13:26:53;19.40;99.90
52941;DHT22;62001;53.366;6.636;2022-09-13T13:29:33;19.40;99.90
52941;DHT22;62001;53.366;6.636;2022-09-13T13:34:47;19.40;99.90
52941;DHT22;62001;53.366;6.636;2022-09-13T13:39:42;19.50;99.90
52941;DHT22;62001;53.366;6.636;2022-09-13T13:42:24;19.60;99.90
52941;DHT22;62001;53.366;6.636;2022-09-13T13:55:28;19.70;99.90
52941;DHT22;62001;53.366;6.636;2022-09-13T13:57:58;19.70;99.90
52941;DHT22;62001;53.366;6.636;2022-09-13T14:00:30;19.60;99.90
52941;DHT22;62001;53.366;6.636;2022-09-13T14:03:10;19.60;99.90
52941;DHT22;62001;53.366;6.636;2022-09-13T14:19:51;19.70;99.90
52941;DHT22;62001;53.366;6.636;2022-09-13T14:22:24;19.90;99.90
52941;DHT22;62001;53.366;6.636;2022-09-13T14:24:54;20.00;99.90
52941;DHT22;62001;53.366;6.636;2022-09-13T14:27:39;20.00;99.90
52941;DHT22;62001;53.366;6.636;2022-09-13T14:30:25;20.10;99.90
52941;DHT22;62001;53.366;6.636;2022-09-13T14:32:54;20.10;99.90
52941;DHT22;62001;53.366;6.636;2022-09-13T14:38:15;20.20;99.90
52941;DHT22;62001;53.366;6.636;2022-09-13T14:40:57;20.10;99.90
52941;DHT22;62001;53.366;6.636;2022-09-13T14:43:26;20.00;99.90
52941;DHT22;62001;53.366;6.636;2022-09-13T14:46:11;20.00;99.90
52941;DHT22;62001;53.366;6.636;2022-09-13T14:53:51;19.90;99.90
52941;DHT22;62001;53.366;6.636;2022-09-13T14:56:42;19.80;99.90
52941;DHT22;62001;53.366;6.636;2022-09-13T14:59:25;19.80;99.90
52941;DHT22;62001;53.366;6.636;2022-09-13T15:01:52;19.80;99.90
52941;DHT22;62001;53.366;6.636;2022-09-13T15:04:18;19.80;99.90
52941;DHT22;62001;53.366;6.636;2022-09-13T15:06:45;19.90;99.90
52941;DHT22;62001;53.366;6.636;2022-09-13T15:12:01;19.80;99.90
52941;DHT22;62001;53.366;6.636;2022-09-13T15:14:28;19.90;99.90
52941;DHT22;62001;53.366;6.636;2022-09-13T15:17:08;19.80;99.90
52941;DHT22;62001;53.366;6.636;2022-09-13T15:19:43;19.70;99.90
52941;DHT22;62001;53.366;6.636;2022-09-13T15:22:24;19.60;99.90
52941;DHT22;62001;53.366;6.636;2022-09-13T15:24:58;19.50;99.90
52941;DHT22;62001;53.366;6.636;2022-09-13T15:27:44;19.50;99.90
52941;DHT22;62001;53.366;6.636;2022-09-13T15:30:22;19.50;99.90
52941;DHT22;62001;53.366;6.636;2022-09-13T15:32:48;19.40;99.90
52941;DHT22;62001;53.366;6.636;2022-09-13T15:35:28;19.40;99.90
52941;DHT22;62001;53.366;6.636;2022-09-13T15:40:43;19.20;99.90
52941;DHT22;62001;53.366;6.636;2022-09-13T15:43:09;19.10;99.90
52941;DHT22;62001;53.366;6.636;2022-09-13T15:45:35;19.10;99.90
52941;DHT22;62001;53.366;6.636;2022-09-13T15:48:00;19.00;99.90
52941;DHT22;62001;53.366;6.636;2022-09-13T15:50:28;19.00;99.90
52941;DHT22;62001;53.366;6.636;2022-09-13T15:52:57;19.00;99.90
52941;DHT22;62001;53.366;6.636;2022-09-13T15:55:24;18.90;99.90
52941;DHT22;62001;53.366;6.636;2022-09-13T15:57:50;18.90;99.90
52941;DHT22;62001;53.366;6.636;2022-09-13T16:00:25;18.80;99.90
52941;DHT22;62001;53.366;6.636;2022-09-13T16:02:51;18.80;99.90
52941;DHT22;62001;53.366;6.636;2022-09-13T16:05:18;18.70;99.90
52941;DHT22;62001;53.366;6.636;2022-09-13T16:07:44;18.70;99.90
52941;DHT22;62001;53.366;6.636;2022-09-13T16:10:16;18.70;99.90
52941;DHT22;62001;53.366;6.636;2022-09-13T16:12:43;18.60;99.90
52941;DHT22;62001;53.366;6.636;2022-09-13T16:15:10;18.60;99.90
52941;DHT22;62001;53.366;6.636;2022-09-13T16:17:37;18.60;99.90
52941;DHT22;62001;53.366;6.636;2022-09-13T16:20:04;18.60;99.90
52941;DHT22;62001;53.366;6.636;2022-09-13T16:22:32;18.50;99.90
52941;DHT22;62001;53.366;6.636;2022-09-13T16:24:57;18.50;99.90
52941;DHT22;62001;53.366;6.636;2022-09-13T16:27:24;18.40;99.90
52941;DHT22;62001;53.366;6.636;2022-09-13T16:29:51;18.40;99.90
52941;DHT22;62001;53.366;6.636;2022-09-13T16:32:17;18.40;99.90
52941;DHT22;62001;53.366;6.636;2022-09-13T16:34:43;18.40;99.90
52941;DHT22;62001;53.366;6.636;2022-09-13T16:37:15;18.40;99.90
52941;DHT22;62001;53.366;6.636;2022-09-13T16:39:43;18.40;99.90
52941;DHT22;62001;53.366;6.636;2022-09-13T16:42:11;18.30;99.90
52941;DHT22;62001;53.366;6.636;2022-09-13T16:44:37;18.30;99.90
52941;DHT22;62001;53.366;6.636;2022-09-13T16:47:03;18.30;99.90
52941;DHT22;62001;53.366;6.636;2022-09-13T16:49:29;18.20;99.90
52941;DHT22;62001;53.366;6.636;2022-09-13T16:51:55;18.20;99.90
52941;DHT22;62001;53.366;6.636;2022-09-13T16:54:25;18.10;99.90
52941;DHT22;62001;53.366;6.636;2022-09-13T16:56:51;18.10;99.90
52941;DHT22;62001;53.366;6.636;2022-09-13T16:59:17;18.10;99.90
52941;DHT22;62001;53.366;6.636;2022-09-13T17:01:43;18.00;99.90
52941;DHT22;62001;53.366;6.636;2022-09-13T17:04:09;18.00;99.90
52941;DHT22;62001;53.366;6.636;2022-09-13T17:06:35;18.00;99.90
52941;DHT22;62001;53.366;6.636;2022-09-13T17:09:03;18.00;99.90
52941;DHT22;62001;53.366;6.636;2022-09-13T17:11:32;18.00;99.90
52941;DHT22;62001;53.366;6.636;2022-09-13T17:14:00;17.90;99.90
52941;DHT22;62001;53.366;6.636;2022-09-13T17:16:32;17.90;99.90
52941;DHT22;62001;53.366;6.636;2022-09-13T17:19:00;17.90;99.90
52941;DHT22;62001;53.366;6.636;2022-09-13T17:21:26;17.80;99.90
52941;DHT22;62001;53.366;6.636;2022-09-13T17:23:53;17.80;99.90
52941;DHT22;62001;53.366;6.636;2022-09-13T17:26:19;17.80;99.90
52941;DHT22;62001;53.366;6.636;2022-09-13T17:28:45;17.80;99.90
52941;DHT22;62001;53.366;6.636;2022-09-13T17:31:11;17.80;99.90
52941;DHT22;62001;53.366;6.636;2022-09-13T17:33:37;17.70;99.90
52941;DHT22;62001;53.366;6.636;2022-09-13T17:36:08;17.70;99.90
52941;DHT22;62001;53.366;6.636;2022-09-13T17:38:35;17.70;99.90
52941;DHT22;62001;53.366;6.636;2022-09-13T17:41:07;17.70;99.90
52941;DHT22;62001;53.366;6.636;2022-09-13T17:43:34;17.60;99.90
52941;DHT22;62001;53.366;6.636;2022-09-13T17:46:05;17.60;99.90
52941;DHT22;62001;53.366;6.636;2022-09-13T17:48:31;17.60;99.90
52941;DHT22;62001;53.366;6.636;2022-09-13T17:51:07;17.60;99.90
52941;DHT22;62001;53.366;6.636;2022-09-13T17:53:39;17.60;99.90
52941;DHT22;62001;53.366;6.636;2022-09-13T17:56:06;17.50;99.90
52941;DHT22;62001;53.366;6.636;2022-09-13T17:58:32;17.50;99.90
52941;DHT22;62001;53.366;6.636;2022-09-13T18:01:00;17.50;99.90
52941;DHT22;62001;53.366;6.636;2022-09-13T18:03:26;17.40;99.90
52941;DHT22;62001;53.366;6.636;2022-09-13T18:05:59;17.40;99.90
52941;DHT22;62001;53.366;6.636;2022-09-13T18:08:26;17.30;99.90
52941;DHT22;62001;53.366;6.636;2022-09-13T18:10:53;17.30;99.90
52941;DHT22;62001;53.366;6.636;2022-09-13T18:13:20;17.30;99.90
52941;DHT22;62001;53.366;6.636;2022-09-13T18:16:07;17.20;99.90
52941;DHT22;62001;53.366;6.636;2022-09-13T18:18:37;17.20;99.90
52941;DHT22;62001;53.366;6.636;2022-09-13T18:21:04;17.20;99.90
52941;DHT22;62001;53.366;6.636;2022-09-13T18:23:30;17.20;99.90
52941;DHT22;62001;53.366;6.636;2022-09-13T18:25:58;17.20;99.90
52941;DHT22;62001;53.366;6.636;2022-09-13T18:28:25;17.10;99.90
52941;DHT22;62001;53.366;6.636;2022-09-13T18:30:53;17.10;99.90
52941;DHT22;62001;53.366;6.636;2022-09-13T18:33:19;17.10;99.90
52941;DHT22;62001;53.366;6.636;2022-09-13T18:38:22;17.10;99.90
52941;DHT22;62001;53.366;6.636;2022-09-13T18:40:59;17.10;99.90
52941;DHT22;62001;53.366;6.636;2022-09-13T18:43:26;17.10;99.90
52941;DHT22;62001;53.366;6.636;2022-09-13T18:45:56;17.00;99.90
52941;DHT22;62001;53.366;6.636;2022-09-13T18:48:23;17.10;99.90
52941;DHT22;62001;53.366;6.636;2022-09-13T18:50:49;17.00;99.90
52941;DHT22;62001;53.366;6.636;2022-09-13T18:53:16;17.00;99.90